createdAt,value
2017-02-13T00:00:14.489Z,922.42
2017-02-13T00:00:35.171Z,922.44
2017-02-13T00:00:55.574Z,922.45
2017-02-13T00:01:15.990Z,922.46
2017-02-13T00:01:36.463Z,922.42
2017-02-13T00:01:56.903Z,922.43
2017-02-13T00:02:16.720Z,922.46
2017-02-13T00:02:37.160Z,922.41
2017-02-13T00:02:56.970Z,922.44
2017-02-13T00:03:17.463Z,922.45
2017-02-13T00:03:37.897Z,922.46
2017-02-13T00:03:58.313Z,922.44
2017-02-13T00:04:18.778Z,922.48
2017-02-13T00:04:39.218Z,922.49
2017-02-13T00:04:58.979Z,922.49
2017-02-13T00:05:19.372Z,922.49
2017-02-13T00:05:39.166Z,922.5
2017-02-13T00:05:59.660Z,922.49
2017-02-13T00:06:19.460Z,922.48
2017-02-13T00:06:39.887Z,922.51
2017-02-13T00:07:00.319Z,922.49
2017-02-13T00:07:20.126Z,922.5
2017-02-13T00:07:40.560Z,922.47
2017-02-13T00:08:01.017Z,922.52
2017-02-13T00:08:20.815Z,922.52
2017-02-13T00:08:41.211Z,922.53
2017-02-13T00:09:01.618Z,922.52
2017-02-13T00:09:21.394Z,922.56
2017-02-13T00:09:41.862Z,922.56
2017-02-13T00:10:02.490Z,922.56
2017-02-13T00:10:22.882Z,922.57
2017-02-13T00:10:43.348Z,922.58
2017-02-13T00:11:03.911Z,922.57
2017-02-13T00:11:24.292Z,922.56
2017-02-13T00:11:44.084Z,922.57
2017-02-13T00:12:04.592Z,922.52
2017-02-13T00:12:24.380Z,922.54
2017-02-13T00:12:45.003Z,922.54
2017-02-13T00:13:05.436Z,922.55
2017-02-13T00:13:25.904Z,922.53
2017-02-13T00:13:46.346Z,922.5
2017-02-13T00:14:06.779Z,922.52
2017-02-13T00:14:27.242Z,922.53
2017-02-13T00:14:47.694Z,922.54
2017-02-13T00:15:08.193Z,922.53
2017-02-13T00:15:28.579Z,922.53
2017-02-13T00:16:22.670Z,922.55
2017-02-13T00:16:43.092Z,922.55
2017-02-13T00:17:03.461Z,922.56
2017-02-13T00:17:23.931Z,922.57
2017-02-13T00:17:44.427Z,922.59
2017-02-13T00:18:04.851Z,922.55
2017-02-13T00:18:24.712Z,922.61
2017-02-13T00:18:45.132Z,922.59
2017-02-13T00:19:05.520Z,922.57
2017-02-13T00:19:25.331Z,922.64
2017-02-13T00:19:45.729Z,922.6
2017-02-13T00:20:06.159Z,922.6
2017-02-13T00:20:26.614Z,922.56
2017-02-13T00:20:47.074Z,922.54
2017-02-13T00:21:07.640Z,922.59
2017-02-13T00:21:28.063Z,922.56
2017-02-13T00:21:48.509Z,922.57
2017-02-13T00:22:08.966Z,922.58
2017-02-13T00:22:28.783Z,922.6
2017-02-13T00:22:49.207Z,922.63
2017-02-13T00:23:09.657Z,922.59
2017-02-13T00:23:28.771Z,922.63
2017-02-13T00:23:49.258Z,922.63
2017-02-13T00:24:09.669Z,922.65
2017-02-13T00:24:30.115Z,922.59
2017-02-13T00:24:50.606Z,922.6
2017-02-13T00:25:11.070Z,922.59
2017-02-13T00:25:30.867Z,922.59
2017-02-13T00:25:51.313Z,922.62
2017-02-13T00:26:11.858Z,922.61
2017-02-13T00:26:31.672Z,922.59
2017-02-13T00:26:52.122Z,922.62
2017-02-13T00:27:12.568Z,922.6
2017-02-13T00:27:33.048Z,922.59
2017-02-13T00:27:53.494Z,922.62
2017-02-13T00:28:13.983Z,922.65
2017-02-13T00:28:34.408Z,922.62
2017-02-13T00:28:54.836Z,922.61
2017-02-13T00:29:15.226Z,922.6
2017-02-13T00:29:35.651Z,922.6
2017-02-13T00:29:56.109Z,922.62
2017-02-13T00:30:30.312Z,922.6
2017-02-13T00:30:50.728Z,922.6
2017-02-13T00:31:11.229Z,922.65
2017-02-13T00:31:31.657Z,922.62
2017-02-13T00:31:52.172Z,922.62
2017-02-13T00:32:11.988Z,922.67
2017-02-13T00:32:32.457Z,922.64
2017-02-13T00:32:52.907Z,922.67
2017-02-13T00:33:13.363Z,922.64
2017-02-13T00:33:33.811Z,922.64
2017-02-13T00:33:54.262Z,922.65
2017-02-13T00:34:14.104Z,922.64
2017-02-13T00:34:33.910Z,922.63
2017-02-13T00:34:54.353Z,922.64
2017-02-13T00:35:14.143Z,922.64
2017-02-13T00:35:34.568Z,922.63
2017-02-13T00:35:55.045Z,922.65
2017-02-13T00:36:15.505Z,922.65
2017-02-13T00:36:35.302Z,922.66
2017-02-13T00:36:55.773Z,922.65
2017-02-13T00:37:16.202Z,922.64
2017-02-13T00:37:36.650Z,922.65
2017-02-13T00:37:57.077Z,922.62
2017-02-13T00:38:17.552Z,922.65
2017-02-13T00:38:37.365Z,922.65
2017-02-13T00:38:57.800Z,922.63
2017-02-13T00:39:18.279Z,922.64
2017-02-13T00:39:38.711Z,922.6
2017-02-13T00:39:59.151Z,922.65
2017-02-13T00:40:19.569Z,922.62
2017-02-13T00:40:39.376Z,922.65
2017-02-13T00:40:59.795Z,922.65
2017-02-13T00:41:20.410Z,922.6
2017-02-13T00:41:40.860Z,922.66
2017-02-13T00:42:01.289Z,922.66
2017-02-13T00:42:21.718Z,922.67
2017-02-13T00:42:42.140Z,922.66
2017-02-13T00:43:02.627Z,922.64
2017-02-13T00:43:23.121Z,922.62
2017-02-13T00:43:43.507Z,922.62
2017-02-13T00:44:03.941Z,922.66
2017-02-13T00:44:23.713Z,922.63
2017-02-13T00:44:44.194Z,922.66
2017-02-13T00:45:04.639Z,922.61
2017-02-13T00:45:25.050Z,922.65
2017-02-13T00:45:45.502Z,922.62
2017-02-13T00:46:05.923Z,922.64
2017-02-13T00:46:25.743Z,922.59
2017-02-13T00:46:46.239Z,922.61
2017-02-13T00:47:06.692Z,922.64
2017-02-13T00:47:27.183Z,922.62
2017-02-13T00:47:47.664Z,922.64
2017-02-13T00:48:08.080Z,922.66
2017-02-13T00:48:27.888Z,922.66
2017-02-13T00:48:47.656Z,922.65
2017-02-13T00:49:08.083Z,922.64
2017-02-13T00:49:27.968Z,922.62
2017-02-13T00:49:47.790Z,922.65
2017-02-13T00:50:08.246Z,922.63
2017-02-13T00:50:28.729Z,922.64
2017-02-13T00:50:49.206Z,922.63
2017-02-13T00:51:09.740Z,922.66
2017-02-13T00:51:30.333Z,922.67
2017-02-13T00:51:50.861Z,922.65
2017-02-13T00:52:11.410Z,922.69
2017-02-13T00:52:31.906Z,922.64
2017-02-13T00:52:52.370Z,922.65
2017-02-13T00:53:12.844Z,922.64
2017-02-13T00:53:33.308Z,922.61
2017-02-13T00:53:53.751Z,922.65
2017-02-13T00:54:14.193Z,922.62
2017-02-13T00:54:34.639Z,922.62
2017-02-13T00:54:55.090Z,922.62
2017-02-13T00:55:14.955Z,922.64
2017-02-13T00:55:35.432Z,922.65
2017-02-13T00:55:55.889Z,922.63
2017-02-13T00:56:16.299Z,922.64
2017-02-13T00:56:36.828Z,922.64
2017-02-13T00:56:57.254Z,922.63
2017-02-13T00:57:17.714Z,922.6
2017-02-13T00:57:38.136Z,922.59
2017-02-13T00:57:58.623Z,922.62
2017-02-13T00:58:18.456Z,922.65
2017-02-13T00:58:38.239Z,922.63
2017-02-13T00:58:58.692Z,922.62
2017-02-13T00:59:19.110Z,922.58
2017-02-13T00:59:39.559Z,922.58
2017-02-13T00:59:59.956Z,922.59
2017-02-13T01:00:20.385Z,922.6
2017-02-13T01:00:40.880Z,922.61
2017-02-13T01:01:01.321Z,922.63
2017-02-13T01:01:21.762Z,922.61
2017-02-13T01:01:42.219Z,922.6
2017-02-13T01:02:02.678Z,922.61
2017-02-13T01:02:21.844Z,922.61
2017-02-13T01:02:42.273Z,922.61
2017-02-13T01:03:02.692Z,922.63
2017-02-13T01:03:23.128Z,922.62
2017-02-13T01:03:43.601Z,922.61
2017-02-13T01:04:04.093Z,922.63
2017-02-13T01:04:24.487Z,922.64
2017-02-13T01:04:44.911Z,922.66
2017-02-13T01:05:04.706Z,922.68
2017-02-13T01:05:25.188Z,922.64
2017-02-13T01:05:45.626Z,922.65
2017-02-13T01:06:06.056Z,922.64
2017-02-13T01:06:25.844Z,922.66
2017-02-13T01:06:46.255Z,922.67
2017-02-13T01:07:06.706Z,922.65
2017-02-13T01:07:25.862Z,922.64
2017-02-13T01:07:46.350Z,922.68
2017-02-13T01:08:06.832Z,922.68
2017-02-13T01:08:27.260Z,922.66
2017-02-13T01:08:47.738Z,922.67
2017-02-13T01:09:08.200Z,922.67
2017-02-13T01:09:27.997Z,922.71
2017-02-13T01:09:48.474Z,922.68
2017-02-13T01:10:08.899Z,922.7
2017-02-13T01:10:28.659Z,922.67
2017-02-13T01:10:49.081Z,922.64
2017-02-13T01:11:09.533Z,922.64
2017-02-13T01:11:29.421Z,922.65
2017-02-13T01:11:49.868Z,922.67
2017-02-13T01:12:10.277Z,922.63
2017-02-13T01:12:30.712Z,922.63
2017-02-13T01:12:51.152Z,922.67
2017-02-13T01:13:10.939Z,922.66
2017-02-13T01:13:31.407Z,922.64
2017-02-13T01:13:51.824Z,922.62
2017-02-13T01:14:12.246Z,922.65
2017-02-13T01:14:32.079Z,922.63
2017-02-13T01:14:52.483Z,922.59
2017-02-13T01:15:12.925Z,922.57
2017-02-13T01:15:33.377Z,922.64
2017-02-13T01:15:53.827Z,922.64
2017-02-13T01:16:14.250Z,922.63
2017-02-13T01:16:34.059Z,922.66
2017-02-13T01:16:54.507Z,922.65
2017-02-13T01:17:14.305Z,922.65
2017-02-13T01:17:34.823Z,922.61
2017-02-13T01:17:55.256Z,922.64
2017-02-13T01:18:15.741Z,922.65
2017-02-13T01:18:36.251Z,922.65
2017-02-13T01:18:56.753Z,922.64
2017-02-13T01:19:17.223Z,922.65
2017-02-13T01:19:37.805Z,922.67
2017-02-13T01:19:58.217Z,922.65
2017-02-13T01:20:18.687Z,922.66
2017-02-13T01:20:39.103Z,922.67
2017-02-13T01:20:59.607Z,922.69
2017-02-13T01:21:20.098Z,922.68
2017-02-13T01:21:40.668Z,922.68
2017-02-13T01:22:01.135Z,922.67
2017-02-13T01:22:21.631Z,922.67
2017-02-13T01:22:42.098Z,922.66
2017-02-13T01:23:02.584Z,922.69
2017-02-13T01:23:23.084Z,922.73
2017-02-13T01:23:43.528Z,922.72
2017-02-13T01:24:03.974Z,922.69
2017-02-13T01:24:24.396Z,922.71
2017-02-13T01:24:44.837Z,922.72
2017-02-13T01:25:05.273Z,922.73
2017-02-13T01:25:25.742Z,922.72
2017-02-13T01:25:46.201Z,922.74
2017-02-13T01:26:06.694Z,922.72
2017-02-13T01:26:27.155Z,922.71
2017-02-13T01:26:47.597Z,922.74
2017-02-13T01:27:08.035Z,922.74
2017-02-13T01:27:27.875Z,922.75
2017-02-13T01:27:47.702Z,922.75
2017-02-13T01:28:07.480Z,922.75
2017-02-13T01:28:25.979Z,922.73
2017-02-13T01:28:46.431Z,922.79
2017-02-13T01:29:06.926Z,922.75
2017-02-13T01:29:27.361Z,922.72
2017-02-13T01:29:47.804Z,922.75
2017-02-13T01:30:08.296Z,922.76
2017-02-13T01:30:28.050Z,922.79
2017-02-13T01:30:48.536Z,922.78
2017-02-13T01:31:08.961Z,922.79
2017-02-13T01:31:29.483Z,922.81
2017-02-13T01:31:49.942Z,922.8
2017-02-13T01:32:10.399Z,922.83
2017-02-13T01:32:30.845Z,922.75
2017-02-13T01:32:51.294Z,922.77
2017-02-13T01:33:11.695Z,922.77
2017-02-13T01:33:30.924Z,922.78
2017-02-13T01:33:51.352Z,922.78
2017-02-13T01:34:11.797Z,922.77
2017-02-13T01:34:31.598Z,922.75
2017-02-13T01:34:52.052Z,922.74
2017-02-13T01:35:12.468Z,922.73
2017-02-13T01:35:32.942Z,922.72
2017-02-13T01:35:53.336Z,922.73
2017-02-13T01:36:13.812Z,922.72
2017-02-13T01:36:34.252Z,922.73
2017-02-13T01:36:54.682Z,922.77
2017-02-13T01:37:15.154Z,922.76
2017-02-13T01:37:35.557Z,922.77
2017-02-13T01:37:55.998Z,922.75
2017-02-13T01:38:16.453Z,922.69
2017-02-13T01:38:36.897Z,922.78
2017-02-13T01:38:57.360Z,922.77
2017-02-13T01:39:19.153Z,922.81
2017-02-13T01:39:39.658Z,922.79
2017-02-13T01:40:00.064Z,922.82
2017-02-13T01:40:19.841Z,922.76
2017-02-13T01:40:40.296Z,922.76
2017-02-13T01:41:00.835Z,922.77
2017-02-13T01:41:20.645Z,922.8
2017-02-13T01:41:41.075Z,922.79
2017-02-13T01:42:00.897Z,922.74
2017-02-13T01:42:21.325Z,922.78
2017-02-13T01:42:41.156Z,922.79
2017-02-13T01:43:01.584Z,922.78
2017-02-13T01:43:21.386Z,922.78
2017-02-13T01:43:41.150Z,922.8
2017-02-13T01:44:00.938Z,922.84
2017-02-13T01:44:21.631Z,922.79
2017-02-13T01:44:41.379Z,922.82
2017-02-13T01:45:01.865Z,922.82
2017-02-13T01:45:22.315Z,922.78
2017-02-13T01:45:42.797Z,922.76
2017-02-13T01:46:03.235Z,922.8
2017-02-13T01:46:23.681Z,922.77
2017-02-13T01:46:44.445Z,922.74
2017-02-13T01:47:04.310Z,922.79
2017-02-13T01:47:24.187Z,922.8
2017-02-13T01:47:44.056Z,922.79
2017-02-13T01:48:04.447Z,922.75
2017-02-13T01:48:24.856Z,922.74
2017-02-13T01:48:45.282Z,922.79
2017-02-13T01:49:05.758Z,922.76
2017-02-13T01:49:26.202Z,922.84
2017-02-13T01:49:46.664Z,922.83
2017-02-13T01:50:07.156Z,922.8
2017-02-13T01:50:26.956Z,922.83
2017-02-13T01:50:47.401Z,922.81
2017-02-13T01:51:07.866Z,922.81
2017-02-13T01:51:27.690Z,922.73
2017-02-13T01:51:47.653Z,922.79
2017-02-13T01:52:08.111Z,922.82
2017-02-13T01:52:28.586Z,922.81
2017-02-13T01:52:49.020Z,922.77
2017-02-13T01:53:09.454Z,922.79
2017-02-13T01:53:29.926Z,922.78
2017-02-13T01:53:50.392Z,922.79
2017-02-13T01:54:10.823Z,922.79
2017-02-13T01:54:31.245Z,922.76
2017-02-13T01:55:05.430Z,922.79
2017-02-13T01:55:26.109Z,922.82
2017-02-13T01:55:46.516Z,922.85
2017-02-13T01:56:06.946Z,922.86
2017-02-13T01:56:27.384Z,922.84
2017-02-13T01:56:47.891Z,922.83
2017-02-13T01:57:08.311Z,922.75
2017-02-13T01:57:28.780Z,922.82
2017-02-13T01:57:49.284Z,922.8
2017-02-13T01:58:09.120Z,922.79
2017-02-13T01:58:28.956Z,922.83
2017-02-13T01:58:49.505Z,922.85
2017-02-13T01:59:09.964Z,922.85
2017-02-13T01:59:30.517Z,922.89
2017-02-13T01:59:50.921Z,922.86
2017-02-13T02:00:11.367Z,922.88
2017-02-13T02:00:31.797Z,922.89
2017-02-13T02:00:52.245Z,922.9
2017-02-13T02:01:12.626Z,922.88
2017-02-13T02:01:33.085Z,922.91
2017-02-13T02:01:53.555Z,922.94
2017-02-13T02:02:13.988Z,922.9
2017-02-13T02:02:33.791Z,922.85
2017-02-13T02:02:54.205Z,922.9
2017-02-13T02:03:14.055Z,922.89
2017-02-13T02:03:34.524Z,922.95
2017-02-13T02:03:54.972Z,922.92
2017-02-13T02:04:15.368Z,922.95
2017-02-13T02:04:35.152Z,922.91
2017-02-13T02:04:55.583Z,922.9
2017-02-13T02:05:29.784Z,922.92
2017-02-13T02:05:50.246Z,922.93
2017-02-13T02:06:10.690Z,922.95
2017-02-13T02:06:31.124Z,922.99
2017-02-13T02:06:51.610Z,922.94
2017-02-13T02:07:12.039Z,922.94
2017-02-13T02:07:32.457Z,922.89
2017-02-13T02:07:52.903Z,922.93
2017-02-13T02:08:13.347Z,922.99
2017-02-13T02:08:33.820Z,922.98
2017-02-13T02:08:54.317Z,922.99
2017-02-13T02:09:14.794Z,922.98
2017-02-13T02:09:35.271Z,922.97
2017-02-13T02:09:55.740Z,922.94
2017-02-13T02:10:29.993Z,923
2017-02-13T02:10:50.541Z,923.01
2017-02-13T02:11:11.031Z,922.95
2017-02-13T02:11:31.540Z,922.96
2017-02-13T02:11:51.953Z,922.95
2017-02-13T02:12:11.733Z,922.97
2017-02-13T02:12:32.264Z,923.01
2017-02-13T02:12:52.713Z,922.95
2017-02-13T02:13:13.174Z,922.93
2017-02-13T02:13:32.976Z,922.94
2017-02-13T02:13:53.398Z,922.91
2017-02-13T02:14:13.869Z,922.95
2017-02-13T02:14:34.283Z,922.96
2017-02-13T02:14:54.704Z,922.96
2017-02-13T02:15:15.164Z,922.9
2017-02-13T02:15:35.573Z,922.96
2017-02-13T02:15:56.076Z,922.87
2017-02-13T02:16:16.523Z,922.92
2017-02-13T02:16:36.989Z,922.8
2017-02-13T02:16:57.475Z,922.9
2017-02-13T02:17:31.736Z,922.93
2017-02-13T02:17:52.168Z,922.93
2017-02-13T02:18:12.603Z,922.97
2017-02-13T02:18:33.049Z,922.91
2017-02-13T02:18:53.512Z,922.95
2017-02-13T02:19:13.983Z,922.94
2017-02-13T02:19:34.436Z,922.96
2017-02-13T02:19:54.891Z,922.92
2017-02-13T02:20:15.315Z,922.93
2017-02-13T02:20:35.740Z,922.92
2017-02-13T02:20:56.181Z,922.94
2017-02-13T02:21:15.967Z,922.99
2017-02-13T02:21:36.419Z,922.89
2017-02-13T02:21:56.845Z,922.95
2017-02-13T02:22:17.235Z,922.94
2017-02-13T02:22:37.670Z,922.96
2017-02-13T02:22:58.120Z,922.94
2017-02-13T02:23:18.567Z,922.95
2017-02-13T02:23:39.066Z,922.9
2017-02-13T02:23:59.507Z,922.93
2017-02-13T02:24:19.962Z,922.9
2017-02-13T02:24:39.767Z,922.93
2017-02-13T02:25:00.184Z,922.94
2017-02-13T02:25:19.987Z,922.94
2017-02-13T02:25:40.447Z,922.94
2017-02-13T02:26:00.896Z,922.95
2017-02-13T02:26:21.364Z,922.91
2017-02-13T02:26:41.791Z,922.95
2017-02-13T02:27:02.262Z,922.97
2017-02-13T02:27:22.064Z,922.96
2017-02-13T02:27:42.488Z,922.93
2017-02-13T02:28:02.884Z,923.01
2017-02-13T02:28:22.701Z,922.95
2017-02-13T02:28:43.081Z,923.04
2017-02-13T02:29:03.515Z,923.02
2017-02-13T02:29:23.308Z,923
2017-02-13T02:29:43.727Z,923.01
2017-02-13T02:30:04.163Z,923.01
2017-02-13T02:30:24.635Z,923.03
2017-02-13T02:30:45.091Z,923.01
2017-02-13T02:31:05.512Z,922.98
2017-02-13T02:31:25.947Z,922.99
2017-02-13T02:31:46.391Z,923.02
2017-02-13T02:32:06.836Z,923.03
2017-02-13T02:32:26.697Z,922.99
2017-02-13T02:32:47.172Z,922.97
2017-02-13T02:33:07.735Z,923.01
2017-02-13T02:33:28.191Z,923.06
2017-02-13T02:33:48.622Z,923.04
2017-02-13T02:34:09.086Z,923.05
2017-02-13T02:34:29.501Z,923.08
2017-02-13T02:34:49.920Z,923.06
2017-02-13T02:35:10.332Z,923.03
2017-02-13T02:35:30.808Z,923.02
2017-02-13T02:35:51.279Z,923.02
2017-02-13T02:36:11.715Z,923.05
2017-02-13T02:36:32.114Z,923.05
2017-02-13T02:36:52.547Z,923.06
2017-02-13T02:37:12.983Z,923.01
2017-02-13T02:37:33.427Z,922.95
2017-02-13T02:37:53.825Z,922.97
2017-02-13T02:38:14.251Z,923.01
2017-02-13T02:38:34.014Z,923.06
2017-02-13T02:38:54.438Z,923.07
2017-02-13T02:39:14.773Z,922.99
2017-02-13T02:39:35.248Z,923.1
2017-02-13T02:39:55.704Z,923.02
2017-02-13T02:40:43.640Z,923.02
2017-02-13T02:41:04.058Z,923.03
2017-02-13T02:41:24.522Z,923.01
2017-02-13T02:41:44.959Z,923.09
2017-02-13T02:42:05.365Z,923.05
2017-02-13T02:42:25.771Z,923.04
2017-02-13T02:42:46.280Z,923.1
2017-02-13T02:43:06.731Z,923.08
2017-02-13T02:43:26.520Z,923.01
2017-02-13T02:43:46.926Z,923.02
2017-02-13T02:44:07.363Z,923.08
2017-02-13T02:44:27.808Z,923.06
2017-02-13T02:44:48.256Z,923.05
2017-02-13T02:45:08.731Z,923.08
2017-02-13T02:46:02.830Z,923.06
2017-02-13T02:46:23.245Z,923.03
2017-02-13T02:46:43.694Z,923.04
2017-02-13T02:47:04.088Z,923.04
2017-02-13T02:47:24.548Z,923.04
2017-02-13T02:47:44.334Z,922.97
2017-02-13T02:48:04.767Z,922.97
2017-02-13T02:48:25.234Z,923.01
2017-02-13T02:48:45.703Z,922.98
2017-02-13T02:49:06.154Z,923.05
2017-02-13T02:49:25.952Z,923.03
2017-02-13T02:49:46.381Z,923.01
2017-02-13T02:50:06.878Z,923.05
2017-02-13T02:50:26.687Z,922.96
2017-02-13T02:50:46.496Z,922.96
2017-02-13T02:51:06.924Z,923.03
2017-02-13T02:51:27.424Z,923
2017-02-13T02:51:47.950Z,923.03
2017-02-13T02:52:08.411Z,923.05
2017-02-13T02:52:28.314Z,923
2017-02-13T02:52:48.146Z,923.06
2017-02-13T02:53:08.556Z,923.07
2017-02-13T02:53:29.204Z,923.08
2017-02-13T02:53:49.833Z,923.05
2017-02-13T02:54:10.252Z,923.07
2017-02-13T02:54:30.660Z,923.05
2017-02-13T02:55:11.876Z,923.05
2017-02-13T02:55:32.294Z,923
2017-02-13T02:55:52.728Z,923.03
2017-02-13T02:56:13.229Z,923
2017-02-13T02:56:33.655Z,923.01
2017-02-13T02:56:54.057Z,923.05
2017-02-13T02:57:13.842Z,923
2017-02-13T02:57:34.300Z,923.08
2017-02-13T02:57:54.726Z,923.02
2017-02-13T02:58:15.179Z,923.06
2017-02-13T02:58:35.615Z,922.99
2017-02-13T02:58:56.240Z,923.07
2017-02-13T02:59:16.624Z,923.03
2017-02-13T02:59:37.076Z,923.01
2017-02-13T02:59:57.522Z,922.94
2017-02-13T03:00:16.684Z,923.01
2017-02-13T03:00:38.199Z,922.99
2017-02-13T03:00:58.605Z,922.98
2017-02-13T03:01:19.047Z,923.01
2017-02-13T03:01:39.535Z,923
2017-02-13T03:01:59.966Z,922.98
2017-02-13T03:02:19.745Z,922.92
2017-02-13T03:02:40.205Z,923.02
2017-02-13T03:03:00.700Z,922.95
2017-02-13T03:03:21.133Z,922.92
2017-02-13T03:03:41.532Z,923.07
2017-02-13T03:04:01.941Z,922.97
2017-02-13T03:04:21.891Z,922.83
2017-02-13T03:04:42.352Z,923.03
2017-02-13T03:05:02.119Z,923.04
2017-02-13T03:05:22.509Z,923.08
2017-02-13T03:05:41.614Z,923.05
2017-02-13T03:06:02.066Z,922.96
2017-02-13T03:06:21.867Z,923.02
2017-02-13T03:06:42.356Z,923
2017-02-13T03:07:02.805Z,923.03
2017-02-13T03:07:22.639Z,922.97
2017-02-13T03:07:42.435Z,923.07
2017-02-13T03:08:02.847Z,923.04
2017-02-13T03:08:23.277Z,923.04
2017-02-13T03:08:43.711Z,923.09
2017-02-13T03:09:04.178Z,922.97
2017-02-13T03:09:24.600Z,923.07
2017-02-13T03:09:45.048Z,923.04
2017-02-13T03:10:05.472Z,923.05
2017-02-13T03:10:25.885Z,923.06
2017-02-13T03:10:46.330Z,923.06
2017-02-13T03:11:06.786Z,923.09
2017-02-13T03:11:26.791Z,923.04
2017-02-13T03:11:45.941Z,923.05
2017-02-13T03:12:06.345Z,923.04
2017-02-13T03:12:26.165Z,923.04
2017-02-13T03:12:46.591Z,923.07
2017-02-13T03:13:07.073Z,923.05
2017-02-13T03:13:26.884Z,923.02
2017-02-13T03:13:46.623Z,922.98
2017-02-13T03:14:07.051Z,923.03
2017-02-13T03:14:27.493Z,923.06
2017-02-13T03:14:47.935Z,922.98
2017-02-13T03:15:08.376Z,923.06
2017-02-13T03:15:28.795Z,923.01
2017-02-13T03:15:49.196Z,922.99
2017-02-13T03:16:09.640Z,923.01
2017-02-13T03:16:30.181Z,922.98
2017-02-13T03:16:50.616Z,922.99
2017-02-13T03:17:11.078Z,923.06
2017-02-13T03:17:30.871Z,923.03
2017-02-13T03:17:51.334Z,923.07
2017-02-13T03:18:11.746Z,923.03
2017-02-13T03:18:32.220Z,923.03
2017-02-13T03:18:52.673Z,923.09
2017-02-13T03:19:13.080Z,923.05
2017-02-13T03:19:33.602Z,923.06
2017-02-13T03:19:54.049Z,923.03
2017-02-13T03:20:14.501Z,923.04
2017-02-13T03:20:34.948Z,923.05
2017-02-13T03:20:55.367Z,923.01
2017-02-13T03:21:15.773Z,923.01
2017-02-13T03:21:36.295Z,923.04
2017-02-13T03:21:56.770Z,923.05
2017-02-13T03:22:16.580Z,923.05
2017-02-13T03:22:37.023Z,923.04
2017-02-13T03:22:57.457Z,923.02
2017-02-13T03:23:17.874Z,923.04
2017-02-13T03:23:38.354Z,923.06
2017-02-13T03:23:58.764Z,923.06
2017-02-13T03:24:18.588Z,923.03
2017-02-13T03:24:39.068Z,923.07
2017-02-13T03:24:58.884Z,923.04
2017-02-13T03:25:19.281Z,923.05
2017-02-13T03:25:39.691Z,923.07
2017-02-13T03:26:00.112Z,923.04
2017-02-13T03:26:19.244Z,923.02
2017-02-13T03:26:39.805Z,923.03
2017-02-13T03:27:00.229Z,922.98
2017-02-13T03:27:20.033Z,923
2017-02-13T03:27:40.490Z,923
2017-02-13T03:28:00.910Z,923
2017-02-13T03:28:20.750Z,922.95
2017-02-13T03:28:41.194Z,923
2017-02-13T03:29:01.609Z,923.04
2017-02-13T03:29:21.385Z,923.03
2017-02-13T03:29:41.826Z,923.01
2017-02-13T03:30:02.461Z,923.01
2017-02-13T03:30:22.908Z,923.05
2017-02-13T03:30:43.404Z,923
2017-02-13T03:31:03.859Z,922.98
2017-02-13T03:31:24.343Z,922.99
2017-02-13T03:31:42.901Z,923.01
2017-02-13T03:32:03.357Z,922.93
2017-02-13T03:32:23.140Z,922.99
2017-02-13T03:32:42.917Z,922.99
2017-02-13T03:33:03.354Z,923
2017-02-13T03:33:23.826Z,922.99
2017-02-13T03:33:44.292Z,922.98
2017-02-13T03:34:04.717Z,923.01
2017-02-13T03:34:25.162Z,922.96
2017-02-13T03:34:45.610Z,922.96
2017-02-13T03:35:06.034Z,922.99
2017-02-13T03:35:26.469Z,922.95
2017-02-13T03:35:46.884Z,922.96
2017-02-13T03:36:07.329Z,922.96
2017-02-13T03:36:27.107Z,922.95
2017-02-13T03:36:47.544Z,922.95
2017-02-13T03:37:07.962Z,922.93
2017-02-13T03:37:27.784Z,922.96
2017-02-13T03:37:48.211Z,922.96
2017-02-13T03:38:08.589Z,922.95
2017-02-13T03:38:29.030Z,922.94
2017-02-13T03:38:49.445Z,922.93
2017-02-13T03:39:09.873Z,922.88
2017-02-13T03:39:30.359Z,922.94
2017-02-13T03:39:50.802Z,922.89
2017-02-13T03:40:11.283Z,922.94
2017-02-13T03:40:31.728Z,922.91
2017-02-13T03:40:52.148Z,922.9
2017-02-13T03:41:12.624Z,922.87
2017-02-13T03:41:32.415Z,922.9
2017-02-13T03:41:52.849Z,922.93
2017-02-13T03:42:13.270Z,922.91
2017-02-13T03:42:33.732Z,922.97
2017-02-13T03:42:54.154Z,922.87
2017-02-13T03:43:14.613Z,922.92
2017-02-13T03:43:35.086Z,922.92
2017-02-13T03:43:55.510Z,922.94
2017-02-13T03:44:15.954Z,922.92
2017-02-13T03:44:36.373Z,922.92
2017-02-13T03:44:56.828Z,922.98
2017-02-13T03:45:16.632Z,922.94
2017-02-13T03:45:37.101Z,922.94
2017-02-13T03:45:57.589Z,922.92
2017-02-13T03:46:18.078Z,922.91
2017-02-13T03:46:38.786Z,922.93
2017-02-13T03:46:59.197Z,922.93
2017-02-13T03:47:19.603Z,922.93
2017-02-13T03:47:40.029Z,922.95
2017-02-13T03:48:00.482Z,922.95
2017-02-13T03:48:20.921Z,922.96
2017-02-13T03:48:41.379Z,922.97
2017-02-13T03:49:01.819Z,922.97
2017-02-13T03:49:21.607Z,922.98
2017-02-13T03:49:42.035Z,922.95
2017-02-13T03:50:02.480Z,922.96
2017-02-13T03:50:22.341Z,922.94
2017-02-13T03:50:42.781Z,922.94
2017-02-13T03:51:03.235Z,922.97
2017-02-13T03:51:23.663Z,922.94
2017-02-13T03:51:44.128Z,922.94
2017-02-13T03:52:04.537Z,922.96
2017-02-13T03:52:24.962Z,922.95
2017-02-13T03:52:45.403Z,922.92
2017-02-13T03:53:05.814Z,922.92
2017-02-13T03:53:25.610Z,922.98
2017-02-13T03:53:46.050Z,922.97
2017-02-13T03:54:06.457Z,922.97
2017-02-13T03:54:26.873Z,922.93
2017-02-13T03:54:47.289Z,922.97
2017-02-13T03:55:07.712Z,922.96
2017-02-13T03:55:28.128Z,922.98
2017-02-13T03:55:47.915Z,922.95
2017-02-13T03:56:08.338Z,922.97
2017-02-13T03:56:28.798Z,922.97
2017-02-13T03:56:49.221Z,922.96
2017-02-13T03:57:09.626Z,922.95
2017-02-13T03:57:29.454Z,922.94
2017-02-13T03:57:49.285Z,922.96
2017-02-13T03:58:09.687Z,923
2017-02-13T03:58:30.135Z,922.94
2017-02-13T03:58:50.591Z,922.91
2017-02-13T03:59:10.326Z,922.96
2017-02-13T03:59:30.734Z,922.95
2017-02-13T03:59:51.171Z,922.94
2017-02-13T04:00:11.577Z,922.94
2017-02-13T04:00:32.050Z,922.93
2017-02-13T04:00:52.490Z,922.96
2017-02-13T04:01:12.920Z,923.02
2017-02-13T04:01:33.368Z,922.96
2017-02-13T04:01:53.780Z,922.94
2017-02-13T04:02:12.923Z,922.92
2017-02-13T04:02:33.371Z,922.98
2017-02-13T04:02:53.825Z,922.94
2017-02-13T04:03:14.272Z,922.95
2017-02-13T04:03:34.055Z,922.96
2017-02-13T04:03:54.483Z,922.96
2017-02-13T04:04:14.423Z,922.96
2017-02-13T04:04:34.847Z,922.98
2017-02-13T04:04:55.275Z,922.95
2017-02-13T04:05:15.929Z,922.96
2017-02-13T04:05:36.374Z,923
2017-02-13T04:05:56.834Z,922.97
2017-02-13T04:06:17.274Z,923
2017-02-13T04:06:37.713Z,922.99
2017-02-13T04:06:58.081Z,922.96
2017-02-13T04:07:17.887Z,923
2017-02-13T04:07:38.330Z,922.99
2017-02-13T04:07:58.790Z,922.98
2017-02-13T04:08:19.201Z,922.95
2017-02-13T04:08:39.628Z,922.93
2017-02-13T04:09:00.049Z,922.95
2017-02-13T04:09:20.504Z,922.92
2017-02-13T04:09:40.985Z,922.94
2017-02-13T04:10:01.419Z,922.95
2017-02-13T04:10:21.868Z,922.99
2017-02-13T04:10:42.323Z,922.93
2017-02-13T04:11:02.683Z,922.97
2017-02-13T04:11:22.575Z,922.96
2017-02-13T04:11:43.000Z,922.94
2017-02-13T04:12:03.458Z,922.94
2017-02-13T04:12:23.903Z,922.97
2017-02-13T04:12:44.339Z,922.97
2017-02-13T04:13:04.764Z,922.94
2017-02-13T04:13:25.203Z,922.94
2017-02-13T04:13:45.610Z,922.94
2017-02-13T04:14:06.040Z,922.91
2017-02-13T04:14:26.441Z,922.94
2017-02-13T04:14:46.910Z,922.87
2017-02-13T04:15:07.334Z,922.9
2017-02-13T04:15:27.146Z,922.89
2017-02-13T04:15:47.527Z,922.87
2017-02-13T04:16:07.955Z,922.91
2017-02-13T04:16:28.382Z,922.9
2017-02-13T04:17:08.069Z,922.81
2017-02-13T04:17:27.193Z,922.86
2017-02-13T04:17:46.993Z,922.82
2017-02-13T04:18:07.423Z,922.8